KRP weather

Karup Airport
Karup, Central Jutland, Denmark

Public forecast

Using degrees Celsius for public forecast. Weather courtesy of forecast.io.

METAR (pilot weather report)

Retrieved 2019/05/21 12:20 UTC (0 seconds ago):

EKKA 211220Z 35003KT 8000 BKN008 17/15 Q1008 TEMPO 2500 SHRA BKN030CB

TAF (pilot weather forecast)

Retrieved 2019/05/21 12:30 UTC (0 seconds ago):

TAF EKKA 211122Z 2112/2212 34006KT 8000 BKN030 TEMPO 2112/2118 2500 SHRA TSRA BKN005 BKN030CB BECMG 2115/2118 29008KT TEMPO 2118/2209 2000 -SHRA BR BKN004 SCT030CB TEMPO 2209/2212 BKN012